Time;durP1;ratioP1;P1;durP2;ratioP2;P2;SDS_P1;SDS_P2;PMS_P1;PMS_P2;Temp;Humidity;BMP_temperature;BMP_pressure;BME280_temperature;BME280_humidity;BME280_pressure;Samples;Min_cycle;Max_cycle;Signal;HPM_P1;HPM_P2
2023/08/29 00:02:21;;;;;;;;;;;;;;;21.40;59.34;100507.13;5031278;28;4141;-65
2023/08/29 00:04:48;;;;;;;;;;;;;;;21.40;59.36;100502.13;5033340;28;4172;-67
2023/08/29 00:07:14;;;;;;;;;;;;;;;21.40;59.11;100489.84;5028750;28;4171;-66
2023/08/29 00:09:41;;;;;;;;;;;;;;;21.40;59.50;100484.09;5027885;28;4154;-67
2023/08/29 00:12:07;;;;;;;;;;;;;;;21.40;59.53;100484.09;5043875;28;4155;-66
2023/08/29 00:14:34;;;;;;;;;;;;;;;21.40;59.08;100490.63;5027687;28;4246;-66
2023/08/29 00:17:00;;;;;;;;;;;;;;;21.40;59.33;100489.84;5028175;28;4150;-66
2023/08/29 00:19:27;;;;;;;;;;;;;;;21.41;59.25;100485.59;5027515;28;4047;-66
2023/08/29 00:21:53;;;;;;;;;;;;;;;21.39;59.48;100485.47;5026549;28;4145;-67
2023/08/29 00:24:19;;;;;;;;;;;;;;;21.40;59.27;100481.97;5027319;28;4271;-66
2023/08/29 00:26:46;;;;;;;;;;;;;;;21.40;59.48;100487.75;5026874;28;4087;-66
2023/08/29 00:29:12;;;;;;;;;;;;;;;21.41;59.53;100488.47;5029297;28;4029;-66
2023/08/29 00:31:38;;;;;;;;;;;;;;;21.39;59.07;100491.25;5029932;28;4108;-66
2023/08/29 00:34:05;;;;;;;;;;;;;;;21.40;59.38;100489.84;5028880;28;4077;-66
2023/08/29 00:36:31;;;;;;;;;;;;;;;21.40;59.36;100486.97;5042494;28;4033;-66
2023/08/29 00:38:59;;;;;;;;;;;;;;;21.40;59.47;100498.50;5029322;28;4000;-66
2023/08/29 00:41:25;;;;;;;;;;;;;;;21.40;59.58;100501.38;5042070;28;6334;-66
2023/08/29 00:43:51;;;;;;;;;;;;;;;21.39;59.14;100500.63;5025565;28;4137;-66
2023/08/29 00:46:19;;;;;;;;;;;;;;;21.40;59.26;100498.50;5024945;28;4299;-66
2023/08/29 00:48:45;;;;;;;;;;;;;;;21.39;59.59;100502.75;5028538;28;4166;-66
2023/08/29 00:51:12;;;;;;;;;;;;;;;21.38;59.33;100499.16;5024850;28;4165;-66
2023/08/29 00:53:38;;;;;;;;;;;;;;;21.38;59.24;100493.41;5027549;28;3937;-66
2023/08/29 00:56:05;;;;;;;;;;;;;;;21.38;59.49;100487.63;5026629;28;4167;-66
2023/08/29 00:58:31;;;;;;;;;;;;;;;21.39;59.29;100499.88;5027395;28;4194;-66
2023/08/29 01:00:58;;;;;;;;;;;;;;;21.39;59.36;100499.88;5027033;28;4183;-66
2023/08/29 01:03:24;;;;;;;;;;;;;;;21.38;59.54;100492.66;5040481;28;3969;-66
2023/08/29 01:05:53;;;;;;;;;;;;;;;21.39;59.54;100488.38;5041877;28;4515;-66
2023/08/29 01:08:19;;;;;;;;;;;;;;;21.39;59.57;100488.38;5042902;28;4034;-66
2023/08/29 01:10:53;;;;;;;;;;;;;;;21.38;59.27;100481.13;5029860;28;4221;-66
2023/08/29 01:13:38;;;;;;;;;;;;;;;21.38;59.52;100492.66;5025582;28;3969;-68
2023/08/29 01:16:05;;;;;;;;;;;;;;;21.38;59.45;100498.41;5032064;28;4179;-66
2023/08/29 01:18:31;;;;;;;;;;;;;;;21.38;59.58;100499.16;5027680;28;4313;-66
2023/08/29 01:21:24;;;;;;;;;;;;;;;21.38;59.54;100498.41;5025053;28;3998;-66
2023/08/29 01:23:54;;;;;;;;;;;;;;;21.37;59.59;100479.66;5048464;28;4012;-66
2023/08/29 01:26:20;;;;;;;;;;;;;;;21.36;59.65;100478.91;5044439;28;4633;-66
2023/08/29 01:28:47;;;;;;;;;;;;;;;21.38;59.28;100481.13;5034245;28;4149;-66
2023/08/29 01:31:13;;;;;;;;;;;;;;;21.38;59.27;100489.78;5030379;28;4076;-66
2023/08/29 01:33:40;;;;;;;;;;;;;;;21.37;59.44;100491.16;5036180;28;4768;-66
2023/08/29 01:36:06;;;;;;;;;;;;;;;21.37;59.54;100485.41;5032590;28;4114;-66
2023/08/29 01:38:33;;;;;;;;;;;;;;;21.36;59.53;100493.31;5034648;28;4188;-66
2023/08/29 01:40:59;;;;;;;;;;;;;;;21.38;59.23;100498.41;5030794;28;4139;-66
2023/08/29 01:43:25;;;;;;;;;;;;;;;21.37;59.28;100505.56;5031447;28;5227;-66
2023/08/29 01:45:52;;;;;;;;;;;;;;;21.36;59.39;100501.22;5032619;28;4565;-66
2023/08/29 01:48:18;;;;;;;;;;;;;;;21.36;59.39;100498.34;5031237;28;5263;-66
2023/08/29 01:50:45;;;;;;;;;;;;;;;21.37;59.50;100496.94;5047027;28;4141;-66
2023/08/29 01:53:12;;;;;;;;;;;;;;;21.36;59.63;100495.47;5035354;28;4164;-65
2023/08/29 01:55:38;;;;;;;;;;;;;;;21.36;59.30;100495.47;5050289;28;4101;-66
2023/08/29 01:58:05;;;;;;;;;;;;;;;21.36;59.53;100486.81;5050955;28;4290;-64
2023/08/29 02:00:32;;;;;;;;;;;;;;;21.36;59.49;100490.44;5033318;28;4137;-65
2023/08/29 02:02:58;;;;;;;;;;;;;;;21.36;59.46;100492.59;5030341;28;4014;-65
2023/08/29 02:05:24;;;;;;;;;;;;;;;21.37;59.22;100482.53;5035725;28;4952;-65
2023/08/29 02:07:51;;;;;;;;;;;;;;;21.36;59.36;100472.41;5034086;28;4152;-65
2023/08/29 02:10:18;;;;;;;;;;;;;;;21.34;59.27;100465.16;5030736;28;4322;-65
2023/08/29 02:12:44;;;;;;;;;;;;;;;21.36;59.45;100469.53;5035431;28;4051;-65
2023/08/29 02:15:11;;;;;;;;;;;;;;;21.37;59.55;100468.13;5031695;28;4236;-65
2023/08/29 02:17:38;;;;;;;;;;;;;;;21.37;59.38;100468.13;5032350;28;4056;-64
2023/08/29 02:20:07;;;;;;;;;;;;;;;21.36;59.56;100472.41;5049713;28;4527;-67
2023/08/29 02:22:33;;;;;;;;;;;;;;;21.36;59.15;100478.91;5032470;28;4320;-67
2023/08/29 02:25:04;;;;;;;;;;;;;;;21.37;59.45;100476.78;5030332;28;3982;-66
2023/08/29 02:27:32;;;;;;;;;;;;;;;21.34;59.40;100470.94;5032826;28;4193;-67
2023/08/29 02:29:58;;;;;;;;;;;;;;;21.36;59.29;100481.06;5036934;28;4118;-67
2023/08/29 02:32:25;;;;;;;;;;;;;;;21.36;59.57;100483.94;5029350;28;4062;-67
2023/08/29 02:34:51;;;;;;;;;;;;;;;21.37;59.46;100488.28;5030433;28;4310;-66
2023/08/29 02:37:18;;;;;;;;;;;;;;;21.34;59.53;100473.81;5043792;28;4299;-66
2023/08/29 02:39:44;;;;;;;;;;;;;;;21.33;59.25;100475.22;5043888;28;4229;-66
2023/08/29 02:42:11;;;;;;;;;;;;;;;21.34;59.64;100475.97;5029969;28;4043;-66
2023/08/29 02:44:38;;;;;;;;;;;;;;;21.36;59.15;100475.31;5031926;28;4000;-67
2023/08/29 02:47:04;;;;;;;;;;;;;;;21.33;59.58;100469.47;5040682;28;4365;-66
2023/08/29 02:49:31;;;;;;;;;;;;;;;21.34;59.47;100470.19;5029253;28;4084;-66
2023/08/29 02:51:57;;;;;;;;;;;;;;;21.34;59.24;100462.28;5029409;28;4151;-65
2023/08/29 02:54:23;;;;;;;;;;;;;;;21.34;59.38;100465.16;5027244;28;4039;-65
2023/08/29 02:56:51;;;;;;;;;;;;;;;21.34;59.36;100459.41;5028973;28;4073;-66
2023/08/29 02:59:17;;;;;;;;;;;;;;;21.33;59.48;100460.81;5027922;28;4180;-66
2023/08/29 03:01:43;;;;;;;;;;;;;;;21.33;59.50;100457.94;5029286;28;4127;-65
2023/08/29 03:04:10;;;;;;;;;;;;;;;21.33;59.58;100452.19;5030176;28;4230;-65
2023/08/29 03:06:36;;;;;;;;;;;;;;;21.33;59.32;100452.19;5026255;28;4018;-66
2023/08/29 03:09:03;;;;;;;;;;;;;;;21.33;59.52;100434.19;5026526;28;4009;-65
2023/08/29 03:11:30;;;;;;;;;;;;;;;21.33;59.63;100440.66;5044644;28;4114;-65
2023/08/29 03:13:57;;;;;;;;;;;;;;;21.32;59.39;100430.53;5042525;28;4202;-65
2023/08/29 03:16:23;;;;;;;;;;;;;;;21.33;59.52;100429.16;5028701;28;4114;-66
2023/08/29 03:18:50;;;;;;;;;;;;;;;21.33;59.56;100414.75;5046123;28;4130;-66
2023/08/29 03:21:16;;;;;;;;;;;;;;;21.33;59.61;100419.78;5025986;28;4120;-66
2023/08/29 03:23:43;;;;;;;;;;;;;;;21.32;59.60;100424.03;5031887;28;4248;-65
2023/08/29 03:26:09;;;;;;;;;;;;;;;21.31;59.39;100420.44;5024782;28;4299;-66
2023/08/29 03:28:37;;;;;;;;;;;;;;;21.33;59.38;100411.13;5028768;28;4064;-66
2023/08/29 03:31:13;;;;;;;;;;;;;;;21.32;59.53;100410.38;5030629;28;3985;-65
2023/08/29 03:33:39;;;;;;;;;;;;;;;21.32;59.56;100410.38;5027515;28;4201;-65
2023/08/29 03:36:06;;;;;;;;;;;;;;;21.32;59.32;100410.38;5026360;28;4087;-65
2023/08/29 03:38:39;;;;;;;;;;;;;;;21.31;59.33;100411.78;5029606;28;4151;-65
2023/08/29 03:41:07;;;;;;;;;;;;;;;21.33;59.60;100414.00;5025208;28;4118;-65
2023/08/29 03:43:33;;;;;;;;;;;;;;;21.32;59.46;100403.88;5028552;28;4354;-66
2023/08/29 03:46:00;;;;;;;;;;;;;;;21.31;59.53;100397.41;5028219;28;4455;-65
2023/08/29 03:48:27;;;;;;;;;;;;;;;21.31;59.44;100388.75;5028281;28;4128;-66
2023/08/29 03:50:55;;;;;;;;;;;;;;;21.31;59.39;100385.88;5026215;28;4136;-66
2023/08/29 03:53:21;;;;;;;;;;;;;;;21.32;59.54;100370.06;5041073;28;4125;-66
2023/08/29 03:55:48;;;;;;;;;;;;;;;21.30;59.62;100367.13;5039773;28;4056;-67
2023/08/29 03:58:15;;;;;;;;;;;;;;;21.32;59.17;100364.31;5024109;28;5019;-67
2023/08/29 04:00:42;;;;;;;;;;;;;;;21.31;59.49;100380.13;5042000;28;4257;-66
2023/08/29 04:03:09;;;;;;;;;;;;;;;21.30;59.50;100372.88;5039103;28;4179;-66
2023/08/29 04:05:36;;;;;;;;;;;;;;;21.31;59.49;100374.34;5027375;28;4426;-66
2023/08/29 04:08:06;;;;;;;;;;;;;;;21.32;59.57;100369.31;5042548;28;4165;-66
2023/08/29 04:10:37;;;;;;;;;;;;;;;21.31;59.38;100368.59;5031483;28;4115;-67
2023/08/29 04:13:04;;;;;;;;;;;;;;;21.32;59.54;100370.06;5042881;28;4170;-66
2023/08/29 04:15:30;;;;;;;;;;;;;;;21.31;59.49;100365.72;5027166;28;4019;-66
2023/08/29 04:17:57;;;;;;;;;;;;;;;21.31;59.47;100371.47;5031218;28;4041;-66
2023/08/29 04:20:23;;;;;;;;;;;;;;;21.32;59.36;100375.09;5026851;28;4040;-67
2023/08/29 04:22:51;;;;;;;;;;;;;;;21.31;59.28;100368.59;5028651;28;3947;-67
2023/08/29 04:25:17;;;;;;;;;;;;;;;21.32;59.43;100363.56;5025135;28;4093;-66
2023/08/29 04:27:44;;;;;;;;;;;;;;;21.30;59.53;100375.78;5028973;28;3983;-66
2023/08/29 04:30:10;;;;;;;;;;;;;;;21.31;59.20;100374.34;5028536;28;4309;-66
2023/08/29 04:32:37;;;;;;;;;;;;;;;21.31;59.39;100373.63;5023299;28;4179;-67
2023/08/29 04:35:05;;;;;;;;;;;;;;;21.30;59.52;100366.38;5041567;28;5195;-66
2023/08/29 04:37:32;;;;;;;;;;;;;;;21.31;59.27;100367.88;5027290;28;4202;-66
2023/08/29 04:39:59;;;;;;;;;;;;;;;21.15;59.44;100370.91;5043699;28;4134;-66
2023/08/29 04:42:26;;;;;;;;;;;;;;;20.83;59.29;100373.38;5024897;28;4109;-65
2023/08/29 04:44:53;;;;;;;;;;;;;;;20.65;59.04;100382.03;5043224;28;3992;-65
2023/08/29 04:47:20;;;;;;;;;;;;;;;20.64;59.31;100387.06;5027920;28;4187;-65
2023/08/29 04:49:46;;;;;;;;;;;;;;;20.88;58.87;100386.50;5027375;28;4166;-65
2023/08/29 04:52:13;;;;;;;;;;;;;;;21.01;58.70;100385.53;5028628;28;4117;-66
2023/08/29 04:54:39;;;;;;;;;;;;;;;21.10;58.38;100380.81;5040648;28;4288;-65
2023/08/29 04:57:06;;;;;;;;;;;;;;;21.15;58.45;100385.31;5041963;28;4175;-65
2023/08/29 04:59:33;;;;;;;;;;;;;;;21.17;58.64;100382.50;5046430;28;4109;-65
2023/08/29 05:01:59;;;;;;;;;;;;;;;21.19;58.42;100385.47;5041483;28;4052;-65
2023/08/29 05:04:26;;;;;;;;;;;;;;;21.21;58.68;100385.53;5044993;28;5875;-65
2023/08/29 05:06:52;;;;;;;;;;;;;;;21.21;58.69;100382.66;5031084;28;4191;-65
2023/08/29 05:09:18;;;;;;;;;;;;;;;21.22;58.78;100378.34;5044815;28;4383;-65
2023/08/29 05:11:46;;;;;;;;;;;;;;;21.22;58.60;100378.34;5031932;28;4343;-65
2023/08/29 05:14:12;;;;;;;;;;;;;;;21.23;58.65;100379.81;5027878;28;4081;-65
2023/08/29 05:16:38;;;;;;;;;;;;;;;21.24;58.59;100386.34;5024038;28;3969;-65
2023/08/29 05:19:07;;;;;;;;;;;;;;;21.24;58.88;100392.81;5024816;28;4037;-65
2023/08/29 05:21:34;;;;;;;;;;;;;;;21.25;58.79;100400.06;5045925;28;4042;-65
2023/08/29 05:24:01;;;;;;;;;;;;;;;21.24;58.91;100407.22;5045405;28;4152;-65
2023/08/29 05:26:27;;;;;;;;;;;;;;;21.25;59.08;100400.06;5028262;28;4040;-65
2023/08/29 05:28:53;;;;;;;;;;;;;;;21.25;58.87;100397.16;5025996;28;4151;-65
2023/08/29 05:31:20;;;;;;;;;;;;;;;21.23;59.09;100397.09;5030260;28;4146;-65
2023/08/29 05:33:46;;;;;;;;;;;;;;;21.23;59.15;100397.09;5028422;28;4159;-64
2023/08/29 05:36:12;;;;;;;;;;;;;;;21.25;59.18;100402.19;5026170;28;4093;-65
2023/08/29 05:38:39;;;;;;;;;;;;;;;21.22;59.15;100395.63;5030790;28;4369;-65
2023/08/29 05:41:05;;;;;;;;;;;;;;;21.22;59.10;100389.88;5027071;28;4229;-65
2023/08/29 05:43:32;;;;;;;;;;;;;;;21.23;58.81;100391.34;5023051;28;5177;-65
2023/08/29 05:45:58;;;;;;;;;;;;;;;21.22;59.12;100384.13;5028733;28;4228;-66
2023/08/29 05:48:25;;;;;;;;;;;;;;;21.24;59.25;100389.22;5027961;28;4337;-65
2023/08/29 05:50:51;;;;;;;;;;;;;;;21.24;59.27;100386.34;5024071;28;4083;-65
2023/08/29 05:53:18;;;;;;;;;;;;;;;21.23;59.05;100382.69;5030784;28;4154;-65
2023/08/29 05:55:45;;;;;;;;;;;;;;;21.24;58.98;100392.09;5027869;28;4308;-65
2023/08/29 05:58:11;;;;;;;;;;;;;;;21.23;58.99;100402.84;5024697;28;3956;-65
2023/08/29 06:00:38;;;;;;;;;;;;;;;21.24;59.28;100410.09;5026810;28;4248;-65
2023/08/29 06:03:06;;;;;;;;;;;;;;;21.24;59.27;100394.97;5029226;28;3982;-65
2023/08/29 06:05:33;;;;;;;;;;;;;;;21.22;59.25;100389.88;5027241;28;3970;-65
2023/08/29 06:08:02;;;;;;;;;;;;;;;21.23;59.28;100379.81;5029463;28;4140;-65
2023/08/29 06:10:44;;;;;;;;;;;;;;;21.22;59.15;100384.13;5028257;28;4296;-65
2023/08/29 06:13:10;;;;;;;;;;;;;;;21.23;59.22;100376.94;5029218;28;4122;-65
2023/08/29 06:15:37;;;;;;;;;;;;;;;21.23;58.95;100376.94;5030173;28;5133;-65
2023/08/29 06:18:03;;;;;;;;;;;;;;;21.23;59.45;100374.06;5028821;28;4034;-64
2023/08/29 06:20:31;;;;;;;;;;;;;;;21.23;59.24;100374.06;5029783;28;4433;-65
2023/08/29 06:22:58;;;;;;;;;;;;;;;21.22;59.38;100378.34;5028404;28;3949;-65
2023/08/29 06:25:24;;;;;;;;;;;;;;;21.22;59.28;100378.34;5029734;28;3968;-65
2023/08/29 06:27:51;;;;;;;;;;;;;;;21.22;59.20;100401.38;5030085;28;4160;-65
2023/08/29 06:30:17;;;;;;;;;;;;;;;21.23;59.28;100391.34;5028018;28;4236;-65
2023/08/29 06:32:44;;;;;;;;;;;;;;;21.23;59.37;100388.47;5034312;28;4103;-65
2023/08/29 06:35:11;;;;;;;;;;;;;;;21.24;59.54;100398.59;5030710;28;4151;-65
2023/08/29 06:37:37;;;;;;;;;;;;;;;21.23;59.37;100385.56;5031897;28;4206;-65
2023/08/29 06:40:04;;;;;;;;;;;;;;;21.23;59.44;100408.63;5030259;28;4039;-65
2023/08/29 06:42:31;;;;;;;;;;;;;;;21.25;59.64;100410.84;5031178;28;4437;-65
2023/08/29 06:44:58;;;;;;;;;;;;;;;21.24;59.65;100412.97;5031518;28;4097;-65
2023/08/29 06:47:24;;;;;;;;;;;;;;;21.24;59.72;100415.88;5030866;28;5015;-65
2023/08/29 06:49:54;;;;;;;;;;;;;;;21.28;59.54;100427.53;5028795;28;4066;-66
2023/08/29 06:52:21;;;;;;;;;;;;;;;21.28;59.54;100426.78;5031518;28;4099;-65
2023/08/29 06:54:47;;;;;;;;;;;;;;;21.26;59.62;100436.09;5028690;28;4012;-66
2023/08/29 06:57:14;;;;;;;;;;;;;;;21.28;59.83;100438.28;5030668;28;4383;-66
2023/08/29 06:59:40;;;;;;;;;;;;;;;21.31;59.63;100446.34;5034252;28;4023;-66
2023/08/29 07:02:06;;;;;;;;;;;;;;;21.29;59.87;100442.66;5029067;28;4380;-66
2023/08/29 07:04:33;;;;;;;;;;;;;;;21.26;59.61;100461.28;5034320;28;4603;-66
2023/08/29 07:06:59;;;;;;;;;;;;;;;21.25;60.08;100466.28;5033085;28;4437;-66
2023/08/29 07:09:27;;;;;;;;;;;;;;;21.26;59.93;100469.91;5027342;28;6230;-66
2023/08/29 07:11:53;;;;;;;;;;;;;;;21.25;60.16;100462.66;5029538;28;4324;-68
2023/08/29 07:14:20;;;;;;;;;;;;;;;21.20;60.06;100470.41;5030627;28;4236;-66
2023/08/29 07:16:46;;;;;;;;;;;;;;;21.23;60.33;100477.72;5030134;28;4194;-66
2023/08/29 07:19:29;;;;;;;;;;;;;;;21.23;60.12;100483.47;5031040;28;4034;-76
2023/08/29 07:21:56;;;;;;;;;;;;;;;21.25;60.23;100486.44;5030228;28;4053;-66
2023/08/29 07:24:28;;;;;;;;;;;;;;;21.25;60.34;100491.47;5032853;28;4154;-65
2023/08/29 07:26:54;;;;;;;;;;;;;;;21.25;60.03;100495.06;5030984;28;3924;-65
2023/08/29 07:29:20;;;;;;;;;;;;;;;21.26;60.36;100493.69;5029105;28;4033;-66
2023/08/29 07:31:47;;;;;;;;;;;;;;;21.25;59.93;100486.44;5045842;28;4267;-66
2023/08/29 07:34:15;;;;;;;;;;;;;;;21.27;59.86;100489.41;5033517;28;4178;-67
2023/08/29 07:36:42;;;;;;;;;;;;;;;21.28;60.11;100488.00;5031344;28;4416;-65
2023/08/29 07:39:08;;;;;;;;;;;;;;;21.29;60.42;100486.59;5030699;28;4103;-65
2023/08/29 07:41:35;;;;;;;;;;;;;;;21.30;60.33;100479.44;5027987;28;4691;-65
2023/08/29 07:44:01;;;;;;;;;;;;;;;21.29;60.21;100475.06;5028205;28;4087;-65
2023/08/29 07:46:28;;;;;;;;;;;;;;;21.28;60.20;100473.59;5032653;28;4003;-65
2023/08/29 07:48:54;;;;;;;;;;;;;;;21.28;59.89;100482.25;5026563;28;4182;-65
2023/08/29 07:51:21;;;;;;;;;;;;;;;21.29;60.16;100477.22;5031736;28;4788;-65
2023/08/29 07:53:47;;;;;;;;;;;;;;;21.28;60.26;100493.78;5029618;28;4101;-65
2023/08/29 07:56:13;;;;;;;;;;;;;;;21.28;59.92;100476.50;5033526;28;4291;-65
2023/08/29 07:58:40;;;;;;;;;;;;;;;21.28;60.17;100490.13;5033528;28;4008;-65
2023/08/29 08:01:06;;;;;;;;;;;;;;;21.29;60.21;100492.34;5026143;28;4129;-65
2023/08/29 08:03:33;;;;;;;;;;;;;;;21.29;59.86;100491.63;5034978;28;3982;-65
2023/08/29 08:05:59;;;;;;;;;;;;;;;21.29;60.07;100492.34;5028036;28;4035;-65
2023/08/29 08:08:26;;;;;;;;;;;;;;;21.28;60.04;100485.13;5031722;28;4090;-65
2023/08/29 08:10:52;;;;;;;;;;;;;;;21.29;60.23;100485.84;5029600;28;5216;-65
2023/08/29 08:13:18;;;;;;;;;;;;;;;21.30;60.00;100487.31;5031728;28;4103;-65
2023/08/29 08:15:45;;;;;;;;;;;;;;;21.30;60.10;100490.97;5033078;28;4493;-65
2023/08/29 08:18:11;;;;;;;;;;;;;;;21.31;60.21;100488.81;5031104;28;4625;-65
2023/08/29 08:20:38;;;;;;;;;;;;;;;21.31;60.02;100489.53;5029052;28;4176;-65
2023/08/29 08:23:04;;;;;;;;;;;;;;;21.31;59.96;100480.91;5027967;28;5244;-65
2023/08/29 08:25:31;;;;;;;;;;;;;;;21.31;59.96;100478.03;5032942;28;4243;-65
2023/08/29 08:27:58;;;;;;;;;;;;;;;21.32;60.04;100479.50;5030973;28;4499;-65
2023/08/29 08:30:27;;;;;;;;;;;;;;;21.31;60.05;100475.16;5028126;28;5164;-65
2023/08/29 08:32:53;;;;;;;;;;;;;;;21.31;59.95;100478.03;5029356;28;4182;-65
2023/08/29 08:35:20;;;;;;;;;;;;;;;21.33;60.06;100474.50;5028100;28;4041;-65
2023/08/29 08:37:46;;;;;;;;;;;;;;;21.32;60.15;100476.63;5030491;28;4165;-65
2023/08/29 08:40:14;;;;;;;;;;;;;;;21.32;59.86;100479.50;5029033;28;3946;-65
2023/08/29 08:42:41;;;;;;;;;;;;;;;21.33;60.08;100480.97;5028897;28;3972;-66
2023/08/29 08:45:08;;;;;;;;;;;;;;;21.34;59.82;100484.59;5032851;28;4374;-65
2023/08/29 08:47:35;;;;;;;;;;;;;;;21.34;59.72;100484.59;5028369;28;4151;-65
2023/08/29 08:50:02;;;;;;;;;;;;;;;21.34;59.96;100493.25;5027209;28;4057;-65
2023/08/29 08:52:31;;;;;;;;;;;;;;;21.34;59.91;100485.34;5030552;28;4824;-65
2023/08/29 08:54:58;;;;;;;;;;;;;;;21.34;60.00;100493.25;5031883;28;4152;-65
2023/08/29 08:57:24;;;;;;;;;;;;;;;21.34;59.71;100476.69;5030076;28;4276;-65
2023/08/29 08:59:50;;;;;;;;;;;;;;;21.37;60.12;100479.66;5027610;28;4005;-65
2023/08/29 09:02:17;;;;;;;;;;;;;;;21.36;59.99;100470.28;5030036;28;4142;-65
2023/08/29 09:04:43;;;;;;;;;;;;;;;21.37;60.05;100468.13;5025872;28;4056;-65
2023/08/29 09:07:10;;;;;;;;;;;;;;;21.37;59.70;100474.63;5027994;28;4383;-65
2023/08/29 09:09:37;;;;;;;;;;;;;;;21.37;59.83;100473.88;5032426;28;3889;-65
2023/08/29 09:12:03;;;;;;;;;;;;;;;21.38;59.83;100469.63;5026565;28;4134;-65
2023/08/29 09:14:30;;;;;;;;;;;;;;;21.38;60.06;100466.75;5028340;28;4051;-65
2023/08/29 09:16:57;;;;;;;;;;;;;;;21.38;59.84;100458.09;5029916;28;3928;-65
2023/08/29 09:19:24;;;;;;;;;;;;;;;21.37;59.84;100459.47;5031997;28;4069;-65
2023/08/29 09:21:50;;;;;;;;;;;;;;;21.38;60.01;100458.09;5029253;28;3972;-65
2023/08/29 09:24:35;;;;;;;;;;;;;;;21.38;59.60;100447.31;5030321;28;3973;-65
2023/08/29 09:27:06;;;;;;;;;;;;;;;21.38;59.97;100453.06;5027540;28;4133;-65
2023/08/29 09:29:33;;;;;;;;;;;;;;;21.39;59.92;100462.44;5044486;28;4079;-65
2023/08/29 09:32:00;;;;;;;;;;;;;;;21.40;59.73;100461.06;5030040;28;4151;-65
2023/08/29 09:34:27;;;;;;;;;;;;;;;21.40;59.92;100455.28;5029492;28;3890;-65
2023/08/29 09:36:54;;;;;;;;;;;;;;;21.40;59.85;100450.28;5027530;28;4005;-65
2023/08/29 09:39:21;;;;;;;;;;;;;;;21.40;59.96;100449.53;5025197;28;4144;-65
2023/08/29 09:42:03;;;;;;;;;;;;;;;21.41;59.97;100451.03;5029196;28;4072;-65
2023/08/29 09:44:29;;;;;;;;;;;;;;;21.40;59.74;100453.16;5032415;28;3945;-65
2023/08/29 09:46:55;;;;;;;;;;;;;;;21.41;59.64;100456.78;5033470;28;4121;-65
2023/08/29 09:49:22;;;;;;;;;;;;;;;21.41;59.76;100453.91;5030511;28;3994;-66
2023/08/29 09:51:49;;;;;;;;;;;;;;;21.41;59.84;100454.63;5031130;28;4094;-65
2023/08/29 09:54:17;;;;;;;;;;;;;;;21.42;59.67;100458.28;5044537;28;4128;-65
2023/08/29 09:56:44;;;;;;;;;;;;;;;21.41;59.63;100462.53;5031282;28;4372;-65
2023/08/29 09:59:13;;;;;;;;;;;;;;;21.42;59.62;100455.41;5032829;28;4046;-65
2023/08/29 10:01:40;;;;;;;;;;;;;;;21.42;59.95;100446.75;5030204;28;4027;-65
2023/08/29 10:04:06;;;;;;;;;;;;;;;21.42;59.56;100443.88;5029575;28;4148;-65
2023/08/29 10:06:33;;;;;;;;;;;;;;;21.43;59.58;100439.56;5028762;28;4192;-65
2023/08/29 10:08:59;;;;;;;;;;;;;;;21.44;59.72;100435.28;5028039;28;4106;-65
2023/08/29 10:11:26;;;;;;;;;;;;;;;21.43;59.64;100442.47;5045302;28;6510;-65
2023/08/29 10:13:58;;;;;;;;;;;;;;;21.43;59.58;100453.97;5032158;28;4183;-65
2023/08/29 10:16:25;;;;;;;;;;;;;;;21.43;59.54;100448.94;5030716;28;4078;-65
2023/08/29 10:18:51;;;;;;;;;;;;;;;21.44;59.59;100446.81;5034691;28;4159;-65
2023/08/29 10:21:21;;;;;;;;;;;;;;;21.43;59.67;100430.94;5045858;28;4086;-65
2023/08/29 10:23:50;;;;;;;;;;;;;;;21.43;59.89;100433.81;5028630;28;3912;-65
2023/08/29 10:26:17;;;;;;;;;;;;;;;21.44;59.59;100444.69;5050849;28;4157;-65
2023/08/29 10:28:43;;;;;;;;;;;;;;;21.43;59.87;100440.31;5034511;28;4548;-65
2023/08/29 10:31:10;;;;;;;;;;;;;;;21.43;59.90;100442.47;5048650;28;4594;-65
2023/08/29 10:33:39;;;;;;;;;;;;;;;21.45;59.67;100439.66;5027429;28;4146;-65
2023/08/29 10:36:05;;;;;;;;;;;;;;;21.44;59.69;100441.81;5048866;28;4035;-65
2023/08/29 10:38:32;;;;;;;;;;;;;;;21.43;59.65;100425.91;5031429;28;4334;-65
2023/08/29 10:41:09;;;;;;;;;;;;;;;21.43;59.66;100425.19;5048739;28;4499;-65
2023/08/29 10:43:36;;;;;;;;;;;;;;;21.44;59.70;100426.63;5034383;28;4127;-66
2023/08/29 10:46:11;;;;;;;;;;;;;;;21.45;59.85;100422.38;5031469;28;4139;-65
2023/08/29 10:48:44;;;;;;;;;;;;;;;21.44;59.84;100427.41;5029636;28;3897;-65
2023/08/29 10:51:11;;;;;;;;;;;;;;;21.45;59.54;100416.59;5030518;28;4197;-65
2023/08/29 10:53:51;;;;;;;;;;;;;;;21.45;59.59;100413.72;5032600;28;4085;-65
2023/08/29 10:56:19;;;;;;;;;;;;;;;21.45;59.83;100425.25;5030358;28;4148;-65
2023/08/29 10:58:47;;;;;;;;;;;;;;;21.45;59.48;100422.38;5030529;28;4066;-65
2023/08/29 11:01:30;;;;;;;;;;;;;;;21.46;59.76;100426.72;5031617;28;4120;-65
2023/08/29 11:04:00;;;;;;;;;;;;;;;21.45;59.41;100428.13;5030503;28;4489;-65
2023/08/29 11:06:27;;;;;;;;;;;;;;;21.45;59.67;100425.97;5033236;28;4160;-64
2023/08/29 11:09:14;;;;;;;;;;;;;;;21.47;59.72;100431.09;5027138;28;4077;-64
2023/08/29 11:11:41;;;;;;;;;;;;;;;21.46;59.67;100423.84;5032080;28;3975;-65
2023/08/29 11:14:07;;;;;;;;;;;;;;;21.46;59.98;100430.34;5026995;28;4461;-64
2023/08/29 11:16:37;;;;;;;;;;;;;;;21.46;59.76;100430.34;5032651;28;4100;-64
2023/08/29 11:19:05;;;;;;;;;;;;;;;21.46;59.55;100429.59;5033392;28;4185;-65
2023/08/29 11:21:31;;;;;;;;;;;;;;;21.46;59.87;100430.34;5029101;28;4023;-65
2023/08/29 11:23:58;;;;;;;;;;;;;;;21.47;59.66;100426.06;5027312;28;4021;-65
2023/08/29 11:26:43;;;;;;;;;;;;;;;21.46;59.83;100418.84;5030396;28;4086;-65
2023/08/29 11:29:09;;;;;;;;;;;;;;;21.48;59.58;100410.22;5031976;28;4831;-65
2023/08/29 11:31:39;;;;;;;;;;;;;;;21.48;59.83;100397.97;5031550;28;4193;-65
2023/08/29 11:34:17;;;;;;;;;;;;;;;21.48;59.67;100400.84;5031746;28;3906;-65
2023/08/29 11:36:48;;;;;;;;;;;;;;;21.49;59.63;100393.72;5032274;28;3951;-64
2023/08/29 11:39:17;;;;;;;;;;;;;;;21.45;59.58;100379.91;5028267;28;3953;-64
2023/08/29 11:41:44;;;;;;;;;;;;;;;21.47;59.57;100379.22;5030047;28;4415;-65
2023/08/29 11:44:33;;;;;;;;;;;;;;;21.49;59.58;100373.53;5031705;28;4318;-65
2023/08/29 11:47:19;;;;;;;;;;;;;;;21.50;59.42;100372.13;5028290;28;4661;-65
2023/08/29 11:49:49;;;;;;;;;;;;;;;21.50;59.53;100366.38;5033236;28;4045;-65
2023/08/29 11:52:16;;;;;;;;;;;;;;;21.51;59.65;100367.84;5029839;28;4273;-65
2023/08/29 11:54:56;;;;;;;;;;;;;;;21.50;59.67;100378.63;5027956;28;4090;-65
2023/08/29 11:57:23;;;;;;;;;;;;;;;21.50;59.43;100369.97;5028316;28;4333;-65
2023/08/29 11:59:50;;;;;;;;;;;;;;;21.50;59.51;100375.75;5029430;28;4167;-64
2023/08/29 12:02:17;;;;;;;;;;;;;;;21.51;59.43;100373.63;5029556;28;5264;-64
2023/08/29 12:04:45;;;;;;;;;;;;;;;21.50;59.48;100369.97;5029302;28;4084;-64
2023/08/29 12:07:16;;;;;;;;;;;;;;;21.50;59.83;100372.84;5028227;28;4093;-64
2023/08/29 12:09:43;;;;;;;;;;;;;;;21.51;59.74;100376.50;5025637;28;3917;-64
2023/08/29 12:12:26;;;;;;;;;;;;;;;21.50;59.58;100380.78;5027626;28;4271;-64
2023/08/29 12:14:52;;;;;;;;;;;;;;;21.51;59.42;100385.13;5030231;28;4108;-64
2023/08/29 12:17:19;;;;;;;;;;;;;;;21.51;59.64;100388.03;5028834;28;4372;-64
2023/08/29 12:19:46;;;;;;;;;;;;;;;21.50;59.64;100387.25;5030640;28;4147;-64
2023/08/29 12:22:12;;;;;;;;;;;;;;;21.51;59.80;100385.13;5032315;28;4028;-64
2023/08/29 12:24:41;;;;;;;;;;;;;;;21.50;59.44;100383.66;5031796;28;4014;-64
2023/08/29 12:27:08;;;;;;;;;;;;;;;21.50;59.58;100378.63;5031585;28;4050;-64
2023/08/29 12:29:34;;;;;;;;;;;;;;;21.50;59.60;100384.38;5028459;28;3988;-64
2023/08/29 12:32:00;;;;;;;;;;;;;;;21.50;59.92;100380.78;5027075;28;4367;-64
2023/08/29 12:34:27;;;;;;;;;;;;;;;21.50;59.69;100380.78;5026616;28;4942;-64
2023/08/29 12:36:54;;;;;;;;;;;;;;;21.50;59.68;100383.66;5027704;28;3998;-64
2023/08/29 12:39:20;;;;;;;;;;;;;;;21.51;59.52;100385.13;5030254;28;4002;-64
2023/08/29 12:41:46;;;;;;;;;;;;;;;21.46;59.62;100383.50;5027254;28;4160;-65
2023/08/29 12:44:13;;;;;;;;;;;;;;;21.25;60.25;100379.91;5030239;28;4197;-64
2023/08/29 12:46:40;;;;;;;;;;;;;;;21.18;60.85;100389.72;5028014;28;4486;-67
2023/08/29 12:49:07;;;;;;;;;;;;;;;21.09;61.06;100385.09;5031451;28;4152;-67
2023/08/29 12:51:33;;;;;;;;;;;;;;;21.06;61.40;100389.28;5028372;28;3961;-66